Time;durP1;ratioP1;P1;durP2;ratioP2;P2;SDS_P1;SDS_P2;PMS_P1;PMS_P2;Temp;Humidity;BMP_temperature;BMP_pressure;BME280_temperature;BME280_humidity;BME280_pressure;Samples;Min_cycle;Max_cycle;Signal;HPM_P1;HPM_P2
2023/11/25 00:01:00;;;;;;;1.00;0.70;;;20.20;56.60;;;;;;5030364;28;20418;-67
2023/11/25 00:03:26;;;;;;;1.40;0.73;;;20.20;56.60;;;;;;5030345;28;20955;-67
2023/11/25 00:05:51;;;;;;;0.97;0.70;;;20.20;56.60;;;;;;5030357;28;20411;-67
2023/11/25 00:08:17;;;;;;;1.57;0.70;;;20.20;56.60;;;;;;5030199;28;20278;-67
2023/11/25 00:10:43;;;;;;;1.77;1.40;;;20.20;56.60;;;;;;5030464;28;20190;-67
2023/11/25 00:13:09;;;;;;;1.00;0.73;;;20.20;56.70;;;;;;5030201;28;20207;-67
2023/11/25 00:15:34;;;;;;;1.20;0.80;;;20.20;56.60;;;;;;5030595;28;20222;-67
2023/11/25 00:18:00;;;;;;;1.10;0.80;;;20.20;56.70;;;;;;5030180;28;20708;-67
2023/11/25 00:20:26;;;;;;;1.10;1.00;;;20.20;56.70;;;;;;5030327;28;20653;-67
2023/11/25 00:22:52;;;;;;;0.97;0.70;;;20.20;56.70;;;;;;5030170;28;20175;-67
2023/11/25 00:25:18;;;;;;;1.10;0.80;;;20.20;56.70;;;;;;5030131;28;20199;-66
2023/11/25 00:27:46;;;;;;;1.33;0.73;;;20.20;56.70;;;;;;5029351;28;20458;-67
2023/11/25 00:30:12;;;;;;;1.70;0.90;;;20.20;56.70;;;;;;5029901;28;20410;-67
2023/11/25 00:32:37;;;;;;;1.30;0.90;;;20.20;56.70;;;;;;5028906;28;20422;-67
2023/11/25 00:35:07;;;;;;;2.23;1.00;;;20.10;56.60;;;;;;5028789;28;20410;-67
2023/11/25 00:37:33;;;;;;;1.57;0.80;;;20.20;56.80;;;;;;5028275;28;20291;-68
2023/11/25 00:39:59;;;;;;;1.83;0.90;;;20.20;56.80;;;;;;5028086;28;20410;-67
2023/11/25 00:42:25;;;;;;;1.30;0.90;;;20.10;56.70;;;;;;5028934;28;20913;-67
2023/11/25 00:44:51;;;;;;;1.40;0.80;;;20.10;56.70;;;;;;5029974;28;20186;-67
2023/11/25 00:47:17;;;;;;;1.13;0.87;;;20.10;56.70;;;;;;5029908;28;20442;-67
2023/11/25 00:49:44;;;;;;;1.33;0.87;;;20.10;57.30;;;;;;5030281;28;20182;-67
2023/11/25 00:52:10;;;;;;;0.90;0.70;;;20.10;56.70;;;;;;5029981;28;20651;-67
2023/11/25 00:54:36;;;;;;;1.23;0.77;;;20.10;56.70;;;;;;5029935;28;20510;-67
2023/11/25 00:57:01;;;;;;;0.97;0.73;;;20.10;56.70;;;;;;5029828;28;20283;-67
2023/11/25 00:59:28;;;;;;;1.00;0.70;;;20.10;56.70;;;;;;5029868;28;20667;-67
2023/11/25 01:01:53;;;;;;;0.90;0.70;;;20.10;56.70;;;;;;5029892;28;20168;-67
2023/11/25 01:04:19;;;;;;;2.13;1.00;;;20.10;56.80;;;;;;5030117;28;20548;-67
2023/11/25 01:06:46;;;;;;;1.23;0.80;;;20.10;56.80;;;;;;5030488;28;20176;-68
2023/11/25 01:09:13;;;;;;;1.10;0.90;;;20.10;56.80;;;;;;5033846;28;20278;-67
2023/11/25 01:11:39;;;;;;;1.93;0.80;;;20.10;56.80;;;;;;5033554;28;20422;-67
2023/11/25 01:14:05;;;;;;;1.00;0.80;;;20.10;56.80;;;;;;5033451;28;20406;-67
2023/11/25 01:16:31;;;;;;;1.70;1.03;;;20.10;56.80;;;;;;5033429;28;20233;-66
2023/11/25 01:18:56;;;;;;;1.63;0.83;;;20.10;56.80;;;;;;5033377;28;20445;-67
2023/11/25 01:21:22;;;;;;;1.70;1.00;;;20.10;56.80;;;;;;5033265;28;20191;-66
2023/11/25 01:23:47;;;;;;;1.83;0.70;;;20.10;56.80;;;;;;5033323;28;20207;-68
2023/11/25 01:26:13;;;;;;;1.30;0.80;;;20.10;56.80;;;;;;5033265;28;20172;-67
2023/11/25 01:28:40;;;;;;;1.00;0.80;;;20.10;56.80;;;;;;5033090;28;20231;-67
2023/11/25 01:31:06;;;;;;;0.90;0.80;;;20.10;56.80;;;;;;5033154;28;20163;-67
2023/11/25 01:33:31;;;;;;;2.90;1.00;;;20.10;56.80;;;;;;5033121;28;20440;-68
2023/11/25 01:35:58;;;;;;;2.10;0.80;;;20.10;56.80;;;;;;5033286;28;20410;-67
2023/11/25 01:38:23;;;;;;;1.20;0.90;;;20.10;56.90;;;;;;5032949;28;20238;-67
2023/11/25 01:40:52;;;;;;;1.67;0.87;;;20.10;56.90;;;;;;5032950;28;20819;-66
2023/11/25 01:43:21;;;;;;;1.23;0.90;;;20.10;56.90;;;;;;5032897;28;20168;-66
2023/11/25 01:45:49;;;;;;;0.90;0.70;;;20.10;56.90;;;;;;5032884;28;20406;-66
2023/11/25 01:48:15;;;;;;;1.00;0.80;;;20.10;56.90;;;;;;5032863;28;20507;-67
2023/11/25 01:50:40;;;;;;;1.00;0.70;;;20.10;56.90;;;;;;5032681;28;20414;-66
2023/11/25 01:53:07;;;;;;;1.57;0.80;;;20.10;56.90;;;;;;5032999;28;20421;-67
2023/11/25 01:55:34;;;;;;;1.20;1.00;;;20.10;56.90;;;;;;5032621;28;20167;-68
2023/11/25 01:58:00;;;;;;;1.33;0.70;;;20.10;56.90;;;;;;5014570;28;20462;-66
2023/11/25 02:00:28;;;;;;;1.90;0.90;;;20.10;56.90;;;;;;5032667;28;20403;-67
2023/11/25 02:02:54;;;;;;;1.60;1.10;;;20.10;56.90;;;;;;5032537;28;20415;-67
2023/11/25 02:05:19;;;;;;;1.10;0.90;;;20.10;56.90;;;;;;5032762;28;20421;-66
2023/11/25 02:07:45;;;;;;;1.73;0.80;;;20.10;56.90;;;;;;5032430;28;20984;-68
2023/11/25 02:10:11;;;;;;;1.00;0.80;;;20.10;56.90;;;;;;5032354;28;20167;-67
2023/11/25 02:12:38;;;;;;;1.00;0.80;;;20.10;56.90;;;;;;5032632;28;20199;-66
2023/11/25 02:15:10;;;;;;;1.43;0.80;;;20.10;56.90;;;;;;5032336;28;20986;-64
2023/11/25 02:17:38;;;;;;;1.40;0.80;;;20.10;56.90;;;;;;5032020;28;20434;-67
2023/11/25 02:20:08;;;;;;;1.50;0.97;;;20.10;56.90;;;;;;5032258;28;20417;-67
2023/11/25 02:22:36;;;;;;;1.37;0.90;;;20.10;56.90;;;;;;5032266;28;20426;-67
2023/11/25 02:25:03;;;;;;;1.17;0.83;;;20.10;56.90;;;;;;5032062;28;20445;-67
2023/11/25 02:27:28;;;;;;;1.43;0.73;;;20.10;56.90;;;;;;5031982;28;20814;-66
2023/11/25 02:29:55;;;;;;;1.83;0.70;;;20.10;56.90;;;;;;5031941;28;20471;-67
2023/11/25 02:32:21;;;;;;;1.10;0.90;;;20.10;56.90;;;;;;5031958;28;20179;-67
2023/11/25 02:34:47;;;;;;;1.00;0.80;;;20.10;56.90;;;;;;5031943;28;20414;-67
2023/11/25 02:37:15;;;;;;;1.67;0.80;;;20.10;56.90;;;;;;5031715;28;20309;-66
2023/11/25 02:39:42;;;;;;;1.37;0.80;;;20.10;56.90;;;;;;5031936;28;20176;-65
2023/11/25 02:42:09;;;;;;;1.73;0.80;;;20.10;57.00;;;;;;5013921;28;21247;-67
2023/11/25 02:44:35;;;;;;;1.23;0.70;;;20.10;56.90;;;;;;5031788;28;20429;-66
2023/11/25 02:47:02;;;;;;;1.00;0.70;;;20.10;57.00;;;;;;5031554;28;20510;-66
2023/11/25 02:49:27;;;;;;;1.77;0.77;;;20.10;56.90;;;;;;5031513;28;20458;-67
2023/11/25 02:51:57;;;;;;;1.30;0.90;;;20.10;57.00;;;;;;5031470;28;20456;-67
2023/11/25 02:54:23;;;;;;;1.43;1.00;;;20.00;56.80;;;;;;5031567;28;20179;-67
2023/11/25 02:56:49;;;;;;;1.63;0.70;;;20.10;57.00;;;;;;5031332;28;20422;-67
2023/11/25 02:59:17;;;;;;;1.00;0.73;;;20.00;56.90;;;;;;5031310;28;20925;-67
2023/11/25 03:01:48;;;;;;;2.00;0.93;;;20.00;56.90;;;;;;5031403;28;20833;-67
2023/11/25 03:04:17;;;;;;;1.40;0.83;;;20.00;57.40;;;;;;5031633;28;20837;-66
2023/11/25 03:06:45;;;;;;;1.13;0.80;;;20.00;56.90;;;;;;5031230;28;20410;-66
2023/11/25 03:09:11;;;;;;;1.10;0.70;;;20.00;56.90;;;;;;5031112;28;20497;-67
2023/11/25 03:11:37;;;;;;;1.10;0.70;;;20.00;56.90;;;;;;5031196;28;20415;-68
2023/11/25 03:14:03;;;;;;;1.17;1.00;;;20.00;56.90;;;;;;5031167;28;20999;-67
2023/11/25 03:16:30;;;;;;;1.30;0.90;;;20.00;56.90;;;;;;5013300;28;20214;-67
2023/11/25 03:18:56;;;;;;;1.53;1.10;;;20.00;56.90;;;;;;5030960;28;20430;-67
2023/11/25 03:21:22;;;;;;;1.40;0.87;;;20.00;56.90;;;;;;5030907;28;20442;-66
2023/11/25 03:23:48;;;;;;;2.23;0.90;;;20.00;56.90;;;;;;5030854;28;20689;-67
2023/11/25 03:26:14;;;;;;;1.00;0.70;;;20.00;56.90;;;;;;5031041;28;20183;-66
2023/11/25 03:28:40;;;;;;;1.50;0.90;;;20.00;56.90;;;;;;5029891;28;20212;-67
2023/11/25 03:31:09;;;;;;;1.20;0.80;;;20.00;56.90;;;;;;5030110;28;20527;-66
2023/11/25 03:33:35;;;;;;;1.33;0.80;;;20.00;56.90;;;;;;5028829;28;20913;-67
2023/11/25 03:36:00;;;;;;;0.80;0.70;;;20.00;56.90;;;;;;5030735;28;20414;-67
2023/11/25 03:38:26;;;;;;;1.00;0.80;;;20.00;56.90;;;;;;5030455;28;20199;-67
2023/11/25 03:40:52;;;;;;;1.27;0.90;;;20.00;56.90;;;;;;5030547;28;20207;-67
2023/11/25 03:43:21;;;;;;;1.47;0.80;;;20.00;56.90;;;;;;5030528;28;20614;-68
2023/11/25 03:45:47;;;;;;;0.90;0.70;;;20.00;56.90;;;;;;5030559;28;20917;-67
2023/11/25 03:48:13;;;;;;;0.90;0.70;;;20.00;56.90;;;;;;5030321;28;20528;-67
2023/11/25 03:50:40;;;;;;;1.30;0.77;;;20.00;56.90;;;;;;5030587;28;20406;-67
2023/11/25 03:53:05;;;;;;;1.00;0.70;;;20.00;56.90;;;;;;5030345;28;20454;-67
2023/11/25 03:55:31;;;;;;;1.07;0.70;;;20.00;56.90;;;;;;5030316;28;20410;-68
2023/11/25 03:57:58;;;;;;;1.10;0.70;;;20.00;56.90;;;;;;5030228;28;20597;-67
2023/11/25 04:00:24;;;;;;;0.90;0.60;;;20.00;56.90;;;;;;5030566;28;20399;-67
2023/11/25 04:02:51;;;;;;;0.90;0.60;;;20.00;56.90;;;;;;5030340;28;20180;-67
2023/11/25 04:05:16;;;;;;;1.40;0.80;;;20.00;56.90;;;;;;5030260;28;20168;-67
2023/11/25 04:07:43;;;;;;;1.20;0.80;;;20.00;56.90;;;;;;5029989;28;20484;-67
2023/11/25 04:10:13;;;;;;;0.90;0.60;;;20.00;56.90;;;;;;5030075;28;20179;-68
2023/11/25 04:12:42;;;;;;;1.00;0.70;;;20.00;57.00;;;;;;5030375;28;20935;-67
2023/11/25 04:15:10;;;;;;;1.00;0.70;;;20.00;56.90;;;;;;5030132;28;20413;-66
2023/11/25 04:17:36;;;;;;;1.10;0.73;;;20.00;56.90;;;;;;5030038;28;20445;-67
2023/11/25 04:20:03;;;;;;;0.90;0.60;;;20.00;57.00;;;;;;5030303;28;20417;-67
2023/11/25 04:22:31;;;;;;;1.20;0.73;;;20.00;56.90;;;;;;5030231;28;20420;-67
2023/11/25 04:24:57;;;;;;;1.73;0.90;;;20.00;56.90;;;;;;5029994;28;20407;-66
2023/11/25 04:27:26;;;;;;;1.13;0.67;;;20.00;56.90;;;;;;5029903;28;20203;-67
2023/11/25 04:29:52;;;;;;;1.03;0.80;;;20.00;57.00;;;;;;5030304;28;20430;-67
2023/11/25 04:32:17;;;;;;;1.20;0.90;;;19.90;56.90;;;;;;5029899;28;20904;-67
2023/11/25 04:34:43;;;;;;;1.30;0.80;;;19.90;56.90;;;;;;5030007;28;20446;-67
2023/11/25 04:37:10;;;;;;;0.90;0.70;;;19.90;56.90;;;;;;5029906;28;20191;-68
2023/11/25 04:39:35;;;;;;;1.30;0.70;;;20.00;57.00;;;;;;5029906;28;20422;-67
2023/11/25 04:42:01;;;;;;;0.87;0.70;;;19.90;56.90;;;;;;5031091;28;20905;-67
2023/11/25 04:44:27;;;;;;;0.90;0.70;;;20.00;57.00;;;;;;5033849;28;20218;-67
2023/11/25 04:46:53;;;;;;;0.90;0.70;;;20.00;57.00;;;;;;5033776;28;20199;-67
2023/11/25 04:49:21;;;;;;;1.00;0.70;;;19.90;56.90;;;;;;5034014;28;20457;-67
2023/11/25 04:51:49;;;;;;;1.10;0.80;;;20.00;57.00;;;;;;5033960;28;20604;-67
2023/11/25 04:54:15;;;;;;;1.07;0.70;;;19.90;56.90;;;;;;5033739;28;20406;-67
2023/11/25 04:56:40;;;;;;;1.00;0.70;;;20.00;57.00;;;;;;5033626;28;20422;-67
2023/11/25 04:59:06;;;;;;;1.70;0.90;;;20.00;57.00;;;;;;5033592;28;20605;-66
2023/11/25 05:01:32;;;;;;;1.00;0.70;;;19.90;56.90;;;;;;5033595;28;20186;-66
2023/11/25 05:03:58;;;;;;;0.90;0.70;;;20.00;57.00;;;;;;5034075;28;20231;-67
2023/11/25 05:06:24;;;;;;;1.20;0.70;;;19.90;56.90;;;;;;5033599;28;20254;-67
2023/11/25 05:08:49;;;;;;;1.00;0.70;;;19.90;56.90;;;;;;5033209;28;20553;-67
2023/11/25 05:11:15;;;;;;;0.80;0.60;;;19.90;56.90;;;;;;5033445;28;20259;-67
2023/11/25 05:13:41;;;;;;;1.00;0.70;;;19.90;57.00;;;;;;5033293;28;20167;-67
2023/11/25 05:16:07;;;;;;;1.40;0.60;;;19.90;57.00;;;;;;5033382;28;20425;-66
2023/11/25 05:18:32;;;;;;;1.57;0.77;;;19.90;57.00;;;;;;5015274;28;20207;-67
2023/11/25 05:20:58;;;;;;;0.90;0.70;;;19.90;57.00;;;;;;5033440;28;20180;-67
2023/11/25 05:23:23;;;;;;;0.97;0.60;;;19.90;57.00;;;;;;5033110;28;20164;-67
2023/11/25 05:25:49;;;;;;;1.20;0.70;;;19.90;57.00;;;;;;5033474;28;20183;-67
2023/11/25 05:28:14;;;;;;;2.00;0.97;;;19.90;57.00;;;;;;5032919;28;20198;-66
2023/11/25 05:30:41;;;;;;;0.90;0.73;;;19.90;57.00;;;;;;5032965;28;20179;-67
2023/11/25 05:33:08;;;;;;;1.33;0.73;;;19.90;57.00;;;;;;5032978;28;20175;-67
2023/11/25 05:35:33;;;;;;;1.07;0.70;;;19.90;57.00;;;;;;5033080;28;20410;-68
2023/11/25 05:37:59;;;;;;;0.90;0.60;;;19.90;57.00;;;;;;5032590;28;20450;-66
2023/11/25 05:40:29;;;;;;;0.90;0.70;;;19.90;57.00;;;;;;5032856;28;20183;-67
2023/11/25 05:42:57;;;;;;;0.80;0.60;;;19.90;57.00;;;;;;5033211;28;20164;-67
2023/11/25 05:45:26;;;;;;;0.80;0.60;;;19.90;57.00;;;;;;5033066;28;20418;-66
2023/11/25 05:47:52;;;;;;;1.40;1.00;;;19.90;57.00;;;;;;5032985;28;20464;-67
2023/11/25 05:50:22;;;;;;;1.00;0.70;;;19.90;57.00;;;;;;5032767;28;20863;-67
2023/11/25 05:52:47;;;;;;;0.80;0.70;;;19.90;57.00;;;;;;5032386;28;20764;-67
2023/11/25 05:55:14;;;;;;;0.87;0.60;;;19.90;57.00;;;;;;5032588;28;20537;-67
2023/11/25 05:57:44;;;;;;;1.53;0.60;;;19.90;57.00;;;;;;5032773;28;20207;-67
2023/11/25 06:00:12;;;;;;;1.73;1.63;;;19.90;57.00;;;;;;5032582;28;20403;-68
2023/11/25 06:02:41;;;;;;;1.00;0.70;;;19.90;57.00;;;;;;5032376;28;21046;-67
2023/11/25 06:05:08;;;;;;;0.80;0.60;;;19.90;57.00;;;;;;5032491;28;20836;-67
2023/11/25 06:07:34;;;;;;;1.50;0.80;;;19.90;57.00;;;;;;5032171;28;20449;-66
2023/11/25 06:10:00;;;;;;;1.33;0.70;;;19.90;57.00;;;;;;5032550;28;20406;-67
2023/11/25 06:12:26;;;;;;;0.90;0.60;;;19.90;57.00;;;;;;5032374;28;20410;-67
2023/11/25 06:14:55;;;;;;;1.20;0.70;;;19.90;57.00;;;;;;5032252;28;20559;-67
2023/11/25 06:17:23;;;;;;;0.80;0.60;;;19.90;57.00;;;;;;5032299;28;20508;-67
2023/11/25 06:19:49;;;;;;;1.10;0.60;;;19.90;57.00;;;;;;5014736;28;20409;-67
2023/11/25 06:22:14;;;;;;;0.90;0.70;;;19.90;57.00;;;;;;5032075;28;20406;-67
2023/11/25 06:24:40;;;;;;;1.10;0.70;;;19.90;57.00;;;;;;5014122;28;20433;-67
2023/11/25 06:27:06;;;;;;;1.00;0.60;;;19.90;57.00;;;;;;5031928;28;20309;-66
2023/11/25 06:29:32;;;;;;;1.30;0.60;;;19.90;57.00;;;;;;5031916;28;20203;-67
2023/11/25 06:31:57;;;;;;;0.90;0.67;;;19.90;57.00;;;;;;5031913;28;20434;-67
2023/11/25 06:34:23;;;;;;;1.20;0.80;;;19.90;57.00;;;;;;5031857;28;20464;-67
2023/11/25 06:36:49;;;;;;;1.10;0.70;;;19.90;57.00;;;;;;5031737;28;20176;-66
2023/11/25 06:39:19;;;;;;;1.47;0.80;;;19.90;57.00;;;;;;5032015;28;20180;-67
2023/11/25 06:41:48;;;;;;;0.90;0.60;;;19.90;57.00;;;;;;5031761;28;20489;-67
2023/11/25 06:44:16;;;;;;;0.97;0.70;;;19.90;57.00;;;;;;5031758;28;20460;-67
2023/11/25 06:46:41;;;;;;;0.90;0.60;;;19.90;57.00;;;;;;5013720;28;20476;-67
2023/11/25 06:49:07;;;;;;;1.00;0.70;;;19.90;57.00;;;;;;5031461;28;20960;-67
2023/11/25 06:51:33;;;;;;;1.00;0.70;;;19.90;57.00;;;;;;5031554;28;20180;-67
2023/11/25 06:53:58;;;;;;;1.00;0.60;;;19.90;57.00;;;;;;5013711;28;20184;-67
2023/11/25 06:56:24;;;;;;;0.90;0.70;;;19.90;57.00;;;;;;5031380;28;20248;-66
2023/11/25 06:58:49;;;;;;;1.00;0.60;;;19.90;57.00;;;;;;5031348;28;20204;-66
2023/11/25 07:01:24;;;;;;;1.30;0.70;;;19.90;57.00;;;;;;5031245;28;20172;-68
2023/11/25 07:03:50;;;;;;;1.07;0.70;;;19.90;57.00;;;;;;5013065;28;20555;-66
2023/11/25 07:06:17;;;;;;;1.00;0.70;;;19.90;57.00;;;;;;5030791;28;20413;-67
2023/11/25 07:08:44;;;;;;;1.10;0.70;;;19.90;57.00;;;;;;5031050;28;20206;-67
2023/11/25 07:11:13;;;;;;;1.20;0.80;;;19.90;57.10;;;;;;5031057;28;20403;-67
2023/11/25 07:13:38;;;;;;;0.80;0.60;;;19.90;57.00;;;;;;5031061;28;20421;-67
2023/11/25 07:16:06;;;;;;;1.03;0.80;;;20.00;57.10;;;;;;5031080;28;20407;-66
2023/11/25 07:18:33;;;;;;;0.90;0.60;;;20.00;57.10;;;;;;5030914;28;20202;-66
2023/11/25 07:21:02;;;;;;;1.00;0.80;;;19.90;57.00;;;;;;5030825;28;20426;-66
2023/11/25 07:23:28;;;;;;;0.90;0.70;;;20.00;57.00;;;;;;5030975;28;20952;-67
2023/11/25 07:25:56;;;;;;;0.80;0.60;;;20.00;57.00;;;;;;5030798;28;20425;-66
2023/11/25 07:28:22;;;;;;;1.00;0.60;;;20.00;57.00;;;;;;5030809;28;20693;-66
2023/11/25 07:30:49;;;;;;;0.90;0.60;;;20.00;57.00;;;;;;5030784;28;20410;-67
2023/11/25 07:33:15;;;;;;;1.10;0.70;;;20.00;57.00;;;;;;5031004;28;20554;-67
2023/11/25 07:35:40;;;;;;;1.00;0.70;;;20.10;57.10;;;;;;5012720;28;20418;-67
2023/11/25 07:38:06;;;;;;;1.17;0.70;;;20.10;57.10;;;;;;5030589;28;20697;-67
2023/11/25 07:40:32;;;;;;;0.90;0.70;;;20.10;57.10;;;;;;5030492;28;20537;-67
2023/11/25 07:42:58;;;;;;;0.90;0.70;;;20.10;57.10;;;;;;5030666;28;20259;-67
2023/11/25 07:45:25;;;;;;;1.80;0.90;;;20.10;57.00;;;;;;5030832;28;20481;-66
2023/11/25 07:47:52;;;;;;;0.90;0.70;;;20.10;57.00;;;;;;5030369;28;20250;-67
2023/11/25 07:50:18;;;;;;;0.90;0.70;;;20.10;57.10;;;;;;5030603;28;20457;-65
2023/11/25 07:52:45;;;;;;;0.90;0.60;;;20.10;57.00;;;;;;5012605;28;21009;-66
2023/11/25 07:55:10;;;;;;;1.00;0.60;;;20.10;57.00;;;;;;5030400;28;20234;-67
2023/11/25 07:57:37;;;;;;;3.33;0.80;;;20.10;57.00;;;;;;5030284;28;20426;-67
2023/11/25 08:00:04;;;;;;;0.90;0.63;;;20.10;57.10;;;;;;5030380;28;20266;-67
2023/11/25 08:02:29;;;;;;;0.90;0.70;;;20.10;57.00;;;;;;5030241;28;20406;-67
2023/11/25 08:04:55;;;;;;;0.90;0.60;;;20.10;57.10;;;;;;5030103;28;20480;-68
2023/11/25 08:07:20;;;;;;;1.10;0.63;;;20.10;57.00;;;;;;5012243;28;20195;-66
2023/11/25 08:09:46;;;;;;;1.27;0.80;;;20.10;57.10;;;;;;5030142;28;20211;-66
2023/11/25 08:12:12;;;;;;;0.90;0.70;;;20.10;57.10;;;;;;5030163;28;20164;-67
2023/11/25 08:14:38;;;;;;;0.80;0.60;;;20.10;57.10;;;;;;5030267;28;20416;-67
2023/11/25 08:17:04;;;;;;;1.00;0.67;;;20.10;57.10;;;;;;5029963;28;20191;-67
2023/11/25 08:19:30;;;;;;;1.67;0.80;;;20.10;57.10;;;;;;5030350;28;20187;-66
2023/11/25 08:21:55;;;;;;;1.20;0.80;;;20.10;57.10;;;;;;5030051;28;20930;-67
2023/11/25 08:24:21;;;;;;;1.53;0.70;;;20.10;57.10;;;;;;5029724;28;20719;-67
2023/11/25 08:26:47;;;;;;;1.83;0.70;;;20.10;57.10;;;;;;5028463;28;20172;-65
2023/11/25 08:29:12;;;;;;;2.03;1.23;;;20.10;57.10;;;;;;5030294;28;20253;-67
2023/11/25 08:31:39;;;;;;;0.90;0.60;;;20.10;57.10;;;;;;5030189;28;20194;-67
2023/11/25 08:34:09;;;;;;;2.03;0.93;;;20.10;57.20;;;;;;5030093;28;20654;-66
2023/11/25 08:36:44;;;;;;;0.90;0.80;;;20.10;57.20;;;;;;5030134;28;20422;-67
2023/11/25 08:39:13;;;;;;;0.80;0.70;;;20.10;57.20;;;;;;5030057;28;20908;-67
2023/11/25 08:41:43;;;;;;;1.23;0.73;;;20.10;57.20;;;;;;5029806;28;20429;-67
2023/11/25 08:44:12;;;;;;;1.13;0.67;;;20.10;57.20;;;;;;5029964;28;20894;-67
2023/11/25 08:46:44;;;;;;;2.53;0.70;;;20.10;57.20;;;;;;5029879;28;20414;-67
2023/11/25 08:49:13;;;;;;;1.00;0.70;;;20.10;57.20;;;;;;5029711;28;20441;-67
2023/11/25 08:51:45;;;;;;;0.97;0.77;;;20.10;57.20;;;;;;5029837;28;20905;-66
2023/11/25 08:54:15;;;;;;;1.83;0.83;;;20.10;57.20;;;;;;5029979;28;20444;-67
2023/11/25 08:56:44;;;;;;;1.27;0.80;;;20.10;57.20;;;;;;5030014;28;20785;-67
2023/11/25 08:59:10;;;;;;;1.20;0.80;;;20.10;57.20;;;;;;5029430;28;20442;-67
2023/11/25 09:01:39;;;;;;;0.90;0.70;;;20.10;57.20;;;;;;5029648;28;20418;-67
2023/11/25 09:04:09;;;;;;;1.10;0.80;;;20.10;57.20;;;;;;5029600;28;20836;-67
2023/11/25 09:06:39;;;;;;;1.00;0.73;;;20.10;57.30;;;;;;5011627;28;20557;-67
2023/11/25 09:09:07;;;;;;;1.10;0.70;;;20.10;57.30;;;;;;5029501;28;20453;-67
2023/11/25 09:11:36;;;;;;;4.30;0.90;;;20.10;57.30;;;;;;5029552;28;20418;-67
2023/11/25 09:14:04;;;;;;;1.00;0.77;;;20.10;57.30;;;;;;5029357;28;20441;-66
2023/11/25 09:16:29;;;;;;;0.90;0.63;;;20.10;57.30;;;;;;5029293;28;20833;-65
2023/11/25 09:18:55;;;;;;;1.10;0.80;;;20.10;57.30;;;;;;5011337;28;20445;-67
2023/11/25 09:21:21;;;;;;;1.00;0.60;;;20.10;57.30;;;;;;5029560;28;20179;-67
2023/11/25 09:23:46;;;;;;;2.00;0.97;;;20.10;57.30;;;;;;5029365;28;20191;-67
2023/11/25 09:26:12;;;;;;;0.90;0.70;;;20.10;57.30;;;;;;5029308;28;20178;-67
2023/11/25 09:28:37;;;;;;;0.87;0.70;;;20.10;57.30;;;;;;5031214;28;20243;-67
2023/11/25 09:31:03;;;;;;;0.80;0.60;;;20.10;57.30;;;;;;5032860;28;20195;-67
2023/11/25 09:33:30;;;;;;;1.03;0.70;;;20.10;57.30;;;;;;5032894;28;20171;-66
2023/11/25 09:35:56;;;;;;;1.20;0.70;;;20.10;57.30;;;;;;5032840;28;20407;-67
2023/11/25 09:38:22;;;;;;;1.03;0.67;;;20.10;57.30;;;;;;5032643;28;20437;-66
2023/11/25 09:40:47;;;;;;;1.23;0.90;;;20.10;57.30;;;;;;5032805;28;20414;-66
2023/11/25 09:43:14;;;;;;;1.10;0.73;;;20.10;57.30;;;;;;5032783;28;20184;-66
2023/11/25 09:45:41;;;;;;;1.93;0.70;;;20.10;57.30;;;;;;5033761;28;20163;-67
2023/11/25 09:48:07;;;;;;;1.67;0.80;;;20.10;57.20;;;;;;5032722;28;20450;-68
2023/11/25 09:50:34;;;;;;;1.60;0.70;;;20.10;57.30;;;;;;5016188;28;20444;-67
2023/11/25 09:53:07;;;;;;;1.00;0.90;;;20.10;57.30;;;;;;5034103;28;20826;-67
2023/11/25 09:55:34;;;;;;;1.13;0.70;;;20.10;57.30;;;;;;5033915;28;20397;-67
2023/11/25 09:58:04;;;;;;;1.30;0.70;;;20.10;57.30;;;;;;5033601;28;20838;-65
2023/11/25 10:00:32;;;;;;;3.10;0.80;;;20.10;57.30;;;;;;5033643;28;20450;-67
2023/11/25 10:03:00;;;;;;;1.10;0.70;;;20.10;57.30;;;;;;5033717;28;20422;-68
2023/11/25 10:05:27;;;;;;;1.20;0.70;;;20.10;57.30;;;;;;5034015;28;20485;-67
2023/11/25 10:07:52;;;;;;;1.10;0.63;;;20.10;57.30;;;;;;5034148;28;20469;-68
2023/11/25 10:10:23;;;;;;;0.90;0.70;;;20.10;57.40;;;;;;5033837;28;20418;-69
2023/11/25 10:12:49;;;;;;;1.20;0.80;;;20.10;57.30;;;;;;5033448;28;20148;-64
2023/11/25 10:15:15;;;;;;;1.20;0.80;;;20.10;57.30;;;;;;5033526;28;20510;-66
2023/11/25 10:17:44;;;;;;;1.57;0.70;;;20.10;57.40;;;;;;5033488;28;20517;-66
2023/11/25 10:20:10;;;;;;;0.90;0.60;;;20.10;57.30;;;;;;5033347;28;20708;-66
2023/11/25 10:22:49;;;;;;;2.80;1.47;;;20.10;57.30;;;;;;5033175;28;20450;-66
2023/11/25 10:25:20;;;;;;;3.37;1.90;;;20.10;57.00;;;;;;5032523;28;20501;-66
2023/11/25 10:27:51;;;;;;;3.50;1.90;;;20.10;57.00;;;;;;5032818;28;20782;-66
2023/11/25 10:30:16;;;;;;;4.20;2.30;;;20.10;56.20;;;;;;5032982;28;20851;-67
2023/11/25 10:32:42;;;;;;;4.13;2.13;;;20.10;55.90;;;;;;5032693;28;20407;-67
2023/11/25 10:35:09;;;;;;;2.53;1.90;;;20.10;55.70;;;;;;5032766;28;20588;-67
2023/11/25 10:37:39;;;;;;;7.33;2.63;;;20.10;55.50;;;;;;5032611;28;20441;-66
2023/11/25 10:40:10;;;;;;;3.03;2.37;;;20.00;55.10;;;;;;5032776;28;20460;-66
2023/11/25 10:42:39;;;;;;;6.40;2.73;;;20.00;55.00;;;;;;5032744;28;20414;-65
2023/11/25 10:45:13;;;;;;;5.23;2.77;;;20.00;54.80;;;;;;5032925;28;20415;-66
2023/11/25 10:47:39;;;;;;;4.47;2.80;;;20.00;54.50;;;;;;5032412;28;20815;-66
2023/11/25 10:50:06;;;;;;;6.30;3.10;;;20.00;54.20;;;;;;5032274;28;20418;-65
2023/11/25 10:52:32;;;;;;;5.13;2.77;;;20.00;53.90;;;;;;5032712;28;20457;-66
2023/11/25 10:54:59;;;;;;;6.40;3.10;;;19.90;53.70;;;;;;5032975;28;20422;-67
2023/11/25 10:57:26;;;;;;;3.93;2.40;;;19.90;53.40;;;;;;5032272;28;20480;-66
2023/11/25 10:59:56;;;;;;;5.30;2.70;;;19.90;53.30;;;;;;5032782;28;20827;-67
2023/11/25 11:02:34;;;;;;;5.20;2.70;;;19.90;53.10;;;;;;5032396;28;20943;-66
2023/11/25 11:05:08;;;;;;;4.87;2.43;;;19.90;53.00;;;;;;5014598;28;20414;-66
2023/11/25 11:07:38;;;;;;;4.07;3.20;;;19.80;52.90;;;;;;5032113;28;20480;-67
2023/11/25 11:10:07;;;;;;;6.20;2.40;;;19.80;52.70;;;;;;5031957;28;20756;-66
2023/11/25 11:12:45;;;;;;;4.57;3.00;;;19.80;52.60;;;;;;5031884;28;20413;-65
2023/11/25 11:15:16;;;;;;;3.77;2.53;;;19.80;52.50;;;;;;5031989;28;20390;-66
2023/11/25 11:18:35;;;;;;;3.57;2.20;;;19.80;52.50;;;;;;5013885;28;20445;-66
2023/11/25 11:21:01;;;;;;;5.33;2.60;;;19.70;52.30;;;;;;4931833;29;20502;-67
2023/11/25 11:23:28;;;;;;;4.40;2.40;;;19.70;52.90;;;;;;5014055;28;20514;-67
2023/11/25 11:26:09;;;;;;;6.87;2.40;;;19.70;52.40;;;;;;5031491;28;20406;-66
2023/11/25 11:29:03;;;;;;;4.30;2.70;;;19.70;52.30;;;;;;5031836;28;20553;-66
2023/11/25 11:31:47;;;;;;;4.27;2.37;;;19.70;52.20;;;;;;5031592;28;20387;-66
2023/11/25 11:34:13;;;;;;;5.10;2.57;;;19.60;52.00;;;;;;5031698;28;20386;-67
2023/11/25 11:36:40;;;;;;;5.67;2.90;;;19.60;52.10;;;;;;5031314;28;20795;-67
2023/11/25 11:39:11;;;;;;;3.77;2.63;;;19.60;52.20;;;;;;5031869;28;20418;-66
2023/11/25 11:41:39;;;;;;;5.17;2.30;;;19.60;52.30;;;;;;5031730;28;20390;-67
2023/11/25 11:44:10;;;;;;;5.83;2.80;;;19.60;52.50;;;;;;5031569;28;20410;-67
2023/11/25 11:46:42;;;;;;;3.77;2.20;;;19.60;52.60;;;;;;5031641;28;20414;-66
2023/11/25 11:49:08;;;;;;;3.03;2.10;;;19.60;52.70;;;;;;5013841;28;20519;-66
2023/11/25 11:51:34;;;;;;;3.63;2.43;;;19.60;52.90;;;;;;5031007;28;20441;-67
2023/11/25 11:54:22;;;;;;;5.10;2.80;;;19.60;53.00;;;;;;5031725;28;20410;-66
2023/11/25 11:57:05;;;;;;;2.70;2.40;;;19.60;53.20;;;;;;5031498;28;20437;-67
2023/11/25 11:59:57;;;;;;;4.00;2.57;;;19.60;53.30;;;;;;5031608;28;20426;-67
2023/11/25 12:02:23;;;;;;;4.87;1.80;;;19.60;53.60;;;;;;5031162;28;20781;-66
2023/11/25 12:04:48;;;;;;;5.17;2.20;;;19.60;53.80;;;;;;5031566;28;20410;-67
2023/11/25 12:07:15;;;;;;;4.57;1.93;;;19.70;54.00;;;;;;5031246;28;20192;-67
2023/11/25 12:09:41;;;;;;;4.07;1.90;;;19.70;54.00;;;;;;5031494;28;20238;-66
2023/11/25 12:12:06;;;;;;;3.70;2.13;;;19.70;54.10;;;;;;5031564;28;20435;-65
2023/11/25 12:14:32;;;;;;;4.23;2.07;;;19.70;54.10;;;;;;5013565;28;20543;-66
2023/11/25 12:16:57;;;;;;;4.73;2.77;;;19.70;54.20;;;;;;5031316;28;20605;-67
2023/11/25 12:19:24;;;;;;;3.03;2.43;;;19.70;54.20;;;;;;5031526;28;20171;-67
2023/11/25 12:21:50;;;;;;;4.50;2.77;;;19.70;54.30;;;;;;5031321;28;20171;-66
2023/11/25 12:24:18;;;;;;;3.40;2.33;;;19.70;54.30;;;;;;5031317;28;20419;-66
2023/11/25 12:26:50;;;;;;;5.23;3.10;;;19.70;54.30;;;;;;5031792;28;20784;-67
2023/11/25 12:29:16;;;;;;;4.13;2.77;;;19.80;54.40;;;;;;5031674;28;20541;-67
2023/11/25 12:31:43;;;;;;;5.33;3.13;;;19.80;54.40;;;;;;5031169;28;20459;-67
2023/11/25 12:34:09;;;;;;;25.23;7.33;;;19.80;54.40;;;;;;5031370;28;20945;-66
2023/11/25 12:36:35;;;;;;;89.67;29.93;;;19.80;54.40;;;;;;5031448;28;20434;-66
2023/11/25 12:39:02;;;;;;;44.03;17.53;;;19.80;54.40;;;;;;5031311;28;20171;-66
2023/11/25 12:41:28;;;;;;;31.00;15.07;;;19.80;54.50;;;;;;5031001;28;20410;-67
2023/11/25 12:44:05;;;;;;;35.80;15.30;;;19.80;54.50;;;;;;5031247;28;20947;-66
2023/11/25 12:46:31;;;;;;;60.87;20.50;;;19.80;54.40;;;;;;5031316;28;20168;-66